sensor_id;sensor_type;location;lat;lon;timestamp;P1;durP1;ratioP1;P2;durP2;ratioP2
64560;SDS011;50960;46.838;16.838;2023-11-18T00:01:32;1.50;;;1.40;;
64560;SDS011;50960;46.838;16.838;2023-11-18T00:03:59;1.35;;;1.30;;
64560;SDS011;50960;46.838;16.838;2023-11-18T00:06:26;1.40;;;1.20;;
64560;SDS011;50960;46.838;16.838;2023-11-18T00:08:53;1.10;;;1.00;;
64560;SDS011;50960;46.838;16.838;2023-11-18T00:11:19;1.38;;;1.23;;
64560;SDS011;50960;46.838;16.838;2023-11-18T00:13:46;1.10;;;0.93;;
64560;SDS011;50960;46.838;16.838;2023-11-18T00:16:12;0.80;;;0.80;;
64560;SDS011;50960;46.838;16.838;2023-11-18T00:18:39;1.08;;;1.08;;
64560;SDS011;50960;46.838;16.838;2023-11-18T00:21:05;1.05;;;1.05;;
64560;SDS011;50960;46.838;16.838;2023-11-18T00:23:33;0.90;;;0.90;;
64560;SDS011;50960;46.838;16.838;2023-11-18T00:26:00;0.90;;;0.90;;
64560;SDS011;50960;46.838;16.838;2023-11-18T00:28:27;1.00;;;1.00;;
64560;SDS011;50960;46.838;16.838;2023-11-18T00:30:53;0.90;;;0.90;;
64560;SDS011;50960;46.838;16.838;2023-11-18T00:33:20;1.05;;;0.85;;
64560;SDS011;50960;46.838;16.838;2023-11-18T00:35:46;0.88;;;0.88;;
64560;SDS011;50960;46.838;16.838;2023-11-18T00:38:12;1.00;;;0.90;;
64560;SDS011;50960;46.838;16.838;2023-11-18T00:40:39;1.15;;;1.05;;
64560;SDS011;50960;46.838;16.838;2023-11-18T00:43:05;0.90;;;0.90;;
64560;SDS011;50960;46.838;16.838;2023-11-18T00:45:33;1.08;;;0.90;;
64560;SDS011;50960;46.838;16.838;2023-11-18T00:48:00;0.95;;;0.93;;
64560;SDS011;50960;46.838;16.838;2023-11-18T00:50:26;0.70;;;0.70;;
64560;SDS011;50960;46.838;16.838;2023-11-18T00:52:52;0.80;;;0.80;;
64560;SDS011;50960;46.838;16.838;2023-11-18T00:55:18;0.88;;;0.75;;
64560;SDS011;50960;46.838;16.838;2023-11-18T00:57:45;0.90;;;0.90;;
64560;SDS011;50960;46.838;16.838;2023-11-18T01:00:12;0.95;;;0.95;;
64560;SDS011;50960;46.838;16.838;2023-11-18T01:02:40;0.77;;;0.77;;
64560;SDS011;50960;46.838;16.838;2023-11-18T01:05:06;1.10;;;1.10;;
64560;SDS011;50960;46.838;16.838;2023-11-18T01:07:37;1.00;;;1.00;;
64560;SDS011;50960;46.838;16.838;2023-11-18T01:10:04;1.10;;;1.10;;
64560;SDS011;50960;46.838;16.838;2023-11-18T01:12:31;0.90;;;0.90;;
64560;SDS011;50960;46.838;16.838;2023-11-18T01:14:58;1.02;;;0.98;;
64560;SDS011;50960;46.838;16.838;2023-11-18T01:17:24;0.90;;;0.90;;
64560;SDS011;50960;46.838;16.838;2023-11-18T01:19:50;0.80;;;0.80;;
64560;SDS011;50960;46.838;16.838;2023-11-18T01:22:17;1.08;;;0.98;;
64560;SDS011;50960;46.838;16.838;2023-11-18T01:24:44;0.90;;;0.90;;
64560;SDS011;50960;46.838;16.838;2023-11-18T01:27:11;0.88;;;0.88;;
64560;SDS011;50960;46.838;16.838;2023-11-18T01:29:38;0.80;;;0.80;;
64560;SDS011;50960;46.838;16.838;2023-11-18T01:32:05;1.00;;;1.00;;
64560;SDS011;50960;46.838;16.838;2023-11-18T01:34:37;0.90;;;0.90;;
64560;SDS011;50960;46.838;16.838;2023-11-18T01:37:09;0.80;;;0.80;;
64560;SDS011;50960;46.838;16.838;2023-11-18T01:39:35;0.88;;;0.88;;
64560;SDS011;50960;46.838;16.838;2023-11-18T01:42:02;0.90;;;0.90;;
64560;SDS011;50960;46.838;16.838;2023-11-18T01:44:29;1.20;;;1.10;;
64560;SDS011;50960;46.838;16.838;2023-11-18T01:46:56;0.80;;;0.80;;
64560;SDS011;50960;46.838;16.838;2023-11-18T01:49:23;0.90;;;0.90;;
64560;SDS011;50960;46.838;16.838;2023-11-18T01:51:52;1.00;;;1.00;;
64560;SDS011;50960;46.838;16.838;2023-11-18T01:54:21;1.08;;;1.02;;
64560;SDS011;50960;46.838;16.838;2023-11-18T01:56:49;1.15;;;0.98;;
64560;SDS011;50960;46.838;16.838;2023-11-18T01:59:17;1.00;;;1.00;;
64560;SDS011;50960;46.838;16.838;2023-11-18T02:01:53;1.20;;;1.00;;
64560;SDS011;50960;46.838;16.838;2023-11-18T02:04:23;0.80;;;0.80;;
64560;SDS011;50960;46.838;16.838;2023-11-18T02:06:50;1.02;;;1.00;;
64560;SDS011;50960;46.838;16.838;2023-11-18T02:09:18;0.93;;;0.93;;
64560;SDS011;50960;46.838;16.838;2023-11-18T02:14:45;0.80;;;0.80;;
64560;SDS011;50960;46.838;16.838;2023-11-18T02:17:15;1.00;;;1.00;;
64560;SDS011;50960;46.838;16.838;2023-11-18T02:19:45;0.80;;;0.80;;
64560;SDS011;50960;46.838;16.838;2023-11-18T02:22:12;0.80;;;0.80;;
64560;SDS011;50960;46.838;16.838;2023-11-18T02:24:39;0.73;;;0.73;;
64560;SDS011;50960;46.838;16.838;2023-11-18T02:27:06;1.02;;;0.90;;
64560;SDS011;50960;46.838;16.838;2023-11-18T02:29:34;0.90;;;0.90;;
64560;SDS011;50960;46.838;16.838;2023-11-18T02:32:09;0.90;;;0.90;;
64560;SDS011;50960;46.838;16.838;2023-11-18T02:35:01;1.05;;;0.93;;
64560;SDS011;50960;46.838;16.838;2023-11-18T02:37:37;0.80;;;0.80;;
64560;SDS011;50960;46.838;16.838;2023-11-18T02:40:05;0.80;;;0.80;;
64560;SDS011;50960;46.838;16.838;2023-11-18T02:42:37;0.57;;;0.57;;
64560;SDS011;50960;46.838;16.838;2023-11-18T02:45:05;0.90;;;0.90;;
64560;SDS011;50960;46.838;16.838;2023-11-18T02:47:34;0.80;;;0.80;;
64560;SDS011;50960;46.838;16.838;2023-11-18T02:50:00;0.88;;;0.88;;
64560;SDS011;50960;46.838;16.838;2023-11-18T02:52:31;1.33;;;1.20;;
64560;SDS011;50960;46.838;16.838;2023-11-18T02:54:58;0.70;;;0.70;;
64560;SDS011;50960;46.838;16.838;2023-11-18T02:57:26;0.98;;;0.98;;
64560;SDS011;50960;46.838;16.838;2023-11-18T02:59:53;1.02;;;0.98;;
64560;SDS011;50960;46.838;16.838;2023-11-18T03:02:19;0.60;;;0.60;;
64560;SDS011;50960;46.838;16.838;2023-11-18T03:04:46;0.65;;;0.65;;
64560;SDS011;50960;46.838;16.838;2023-11-18T03:07:12;0.80;;;0.80;;
64560;SDS011;50960;46.838;16.838;2023-11-18T03:09:39;0.98;;;0.98;;
64560;SDS011;50960;46.838;16.838;2023-11-18T03:12:06;0.70;;;0.70;;
64560;SDS011;50960;46.838;16.838;2023-11-18T03:14:33;0.60;;;0.60;;
64560;SDS011;50960;46.838;16.838;2023-11-18T03:17:01;1.38;;;0.90;;
64560;SDS011;50960;46.838;16.838;2023-11-18T03:19:27;0.80;;;0.80;;
64560;SDS011;50960;46.838;16.838;2023-11-18T03:21:54;0.85;;;0.85;;
64560;SDS011;50960;46.838;16.838;2023-11-18T03:24:21;0.88;;;0.85;;
64560;SDS011;50960;46.838;16.838;2023-11-18T03:26:47;0.98;;;0.90;;
64560;SDS011;50960;46.838;16.838;2023-11-18T03:29:14;0.70;;;0.70;;
64560;SDS011;50960;46.838;16.838;2023-11-18T03:31:41;1.10;;;1.10;;
64560;SDS011;50960;46.838;16.838;2023-11-18T03:34:10;0.77;;;0.77;;
64560;SDS011;50960;46.838;16.838;2023-11-18T03:36:36;0.90;;;0.70;;
64560;SDS011;50960;46.838;16.838;2023-11-18T03:39:02;0.70;;;0.70;;
64560;SDS011;50960;46.838;16.838;2023-11-18T03:41:29;0.98;;;0.80;;
64560;SDS011;50960;46.838;16.838;2023-11-18T03:43:55;1.20;;;0.80;;
64560;SDS011;50960;46.838;16.838;2023-11-18T03:46:21;0.80;;;0.80;;
64560;SDS011;50960;46.838;16.838;2023-11-18T03:48:48;0.77;;;0.77;;
64560;SDS011;50960;46.838;16.838;2023-11-18T03:51:14;0.80;;;0.80;;
64560;SDS011;50960;46.838;16.838;2023-11-18T03:53:43;2.03;;;1.00;;
64560;SDS011;50960;46.838;16.838;2023-11-18T03:56:09;0.85;;;0.85;;
64560;SDS011;50960;46.838;16.838;2023-11-18T03:58:36;0.60;;;0.60;;
64560;SDS011;50960;46.838;16.838;2023-11-18T04:01:02;2.60;;;1.00;;
64560;SDS011;50960;46.838;16.838;2023-11-18T04:03:31;1.45;;;0.93;;
64560;SDS011;50960;46.838;16.838;2023-11-18T04:05:57;0.80;;;0.80;;
64560;SDS011;50960;46.838;16.838;2023-11-18T04:08:24;0.50;;;0.50;;
64560;SDS011;50960;46.838;16.838;2023-11-18T04:10:51;0.90;;;0.90;;
64560;SDS011;50960;46.838;16.838;2023-11-18T04:13:17;1.20;;;1.10;;
64560;SDS011;50960;46.838;16.838;2023-11-18T04:15:43;0.77;;;0.77;;
64560;SDS011;50960;46.838;16.838;2023-11-18T04:18:10;0.80;;;0.80;;
64560;SDS011;50960;46.838;16.838;2023-11-18T04:20:39;0.80;;;0.80;;
64560;SDS011;50960;46.838;16.838;2023-11-18T04:23:06;1.75;;;0.80;;
64560;SDS011;50960;46.838;16.838;2023-11-18T04:25:33;0.85;;;0.85;;
64560;SDS011;50960;46.838;16.838;2023-11-18T04:27:59;0.80;;;0.80;;
64560;SDS011;50960;46.838;16.838;2023-11-18T04:30:25;1.33;;;1.10;;
64560;SDS011;50960;46.838;16.838;2023-11-18T04:32:52;0.82;;;0.82;;
64560;SDS011;50960;46.838;16.838;2023-11-18T04:35:18;0.90;;;0.90;;
64560;SDS011;50960;46.838;16.838;2023-11-18T04:37:45;0.98;;;0.98;;
64560;SDS011;50960;46.838;16.838;2023-11-18T04:40:11;0.95;;;0.95;;
64560;SDS011;50960;46.838;16.838;2023-11-18T04:42:38;1.48;;;0.90;;
64560;SDS011;50960;46.838;16.838;2023-11-18T04:45:05;0.95;;;0.95;;
64560;SDS011;50960;46.838;16.838;2023-11-18T04:47:35;2.03;;;1.10;;
64560;SDS011;50960;46.838;16.838;2023-11-18T04:50:03;1.20;;;1.10;;
64560;SDS011;50960;46.838;16.838;2023-11-18T04:52:29;1.40;;;1.10;;
64560;SDS011;50960;46.838;16.838;2023-11-18T04:54:59;1.00;;;0.80;;
64560;SDS011;50960;46.838;16.838;2023-11-18T04:57:25;1.48;;;0.95;;
64560;SDS011;50960;46.838;16.838;2023-11-18T04:59:52;1.00;;;0.90;;
64560;SDS011;50960;46.838;16.838;2023-11-18T05:02:18;1.45;;;1.30;;
64560;SDS011;50960;46.838;16.838;2023-11-18T05:04:45;0.80;;;0.80;;
64560;SDS011;50960;46.838;16.838;2023-11-18T05:07:11;0.90;;;0.90;;
64560;SDS011;50960;46.838;16.838;2023-11-18T05:09:39;0.77;;;0.77;;
64560;SDS011;50960;46.838;16.838;2023-11-18T05:12:06;0.90;;;0.77;;
64560;SDS011;50960;46.838;16.838;2023-11-18T05:14:32;1.95;;;1.10;;
64560;SDS011;50960;46.838;16.838;2023-11-18T05:17:08;0.68;;;0.68;;
64560;SDS011;50960;46.838;16.838;2023-11-18T05:19:47;0.90;;;0.90;;
64560;SDS011;50960;46.838;16.838;2023-11-18T05:22:19;0.80;;;0.80;;
64560;SDS011;50960;46.838;16.838;2023-11-18T05:28:31;0.90;;;0.90;;
64560;SDS011;50960;46.838;16.838;2023-11-18T05:30:58;0.90;;;0.90;;
64560;SDS011;50960;46.838;16.838;2023-11-18T05:33:27;0.90;;;0.90;;
64560;SDS011;50960;46.838;16.838;2023-11-18T05:35:54;1.67;;;1.58;;
64560;SDS011;50960;46.838;16.838;2023-11-18T05:38:20;1.70;;;0.90;;
64560;SDS011;50960;46.838;16.838;2023-11-18T05:40:49;1.30;;;1.30;;
64560;SDS011;50960;46.838;16.838;2023-11-18T05:45:52;0.77;;;0.77;;
64560;SDS011;50960;46.838;16.838;2023-11-18T05:48:37;1.10;;;1.00;;
64560;SDS011;50960;46.838;16.838;2023-11-18T05:51:03;0.82;;;0.82;;
64560;SDS011;50960;46.838;16.838;2023-11-18T05:53:31;1.67;;;1.10;;
64560;SDS011;50960;46.838;16.838;2023-11-18T05:55:57;1.20;;;1.10;;
64560;SDS011;50960;46.838;16.838;2023-11-18T05:58:23;0.90;;;0.90;;
64560;SDS011;50960;46.838;16.838;2023-11-18T06:00:50;1.88;;;1.00;;
64560;SDS011;50960;46.838;16.838;2023-11-18T06:03:16;0.80;;;0.80;;
64560;SDS011;50960;46.838;16.838;2023-11-18T06:05:44;0.93;;;0.80;;
64560;SDS011;50960;46.838;16.838;2023-11-18T06:08:10;0.70;;;0.70;;
64560;SDS011;50960;46.838;16.838;2023-11-18T06:10:38;0.98;;;0.90;;
64560;SDS011;50960;46.838;16.838;2023-11-18T06:13:04;0.90;;;0.90;;
64560;SDS011;50960;46.838;16.838;2023-11-18T06:15:30;2.15;;;1.10;;
64560;SDS011;50960;46.838;16.838;2023-11-18T06:17:58;1.00;;;1.00;;
64560;SDS011;50960;46.838;16.838;2023-11-18T06:20:24;3.28;;;2.97;;
64560;SDS011;50960;46.838;16.838;2023-11-18T06:22:51;1.55;;;1.25;;
64560;SDS011;50960;46.838;16.838;2023-11-18T06:25:17;0.95;;;0.95;;
64560;SDS011;50960;46.838;16.838;2023-11-18T06:27:43;1.65;;;1.55;;
64560;SDS011;50960;46.838;16.838;2023-11-18T06:30:13;1.50;;;1.40;;
64560;SDS011;50960;46.838;16.838;2023-11-18T06:32:41;1.25;;;1.25;;
64560;SDS011;50960;46.838;16.838;2023-11-18T06:35:07;1.30;;;1.20;;
64560;SDS011;50960;46.838;16.838;2023-11-18T06:37:34;1.20;;;1.10;;
64560;SDS011;50960;46.838;16.838;2023-11-18T06:40:00;1.00;;;1.00;;
64560;SDS011;50960;46.838;16.838;2023-11-18T06:42:26;1.23;;;1.20;;
64560;SDS011;50960;46.838;16.838;2023-11-18T06:44:53;1.45;;;1.20;;
64560;SDS011;50960;46.838;16.838;2023-11-18T06:47:19;1.10;;;1.10;;
64560;SDS011;50960;46.838;16.838;2023-11-18T06:49:47;1.05;;;0.90;;
64560;SDS011;50960;46.838;16.838;2023-11-18T06:52:13;0.85;;;0.85;;
64560;SDS011;50960;46.838;16.838;2023-11-18T06:54:42;1.25;;;1.17;;
64560;SDS011;50960;46.838;16.838;2023-11-18T06:57:08;1.10;;;1.10;;
64560;SDS011;50960;46.838;16.838;2023-11-18T06:59:35;0.88;;;0.88;;
64560;SDS011;50960;46.838;16.838;2023-11-18T07:02:01;1.10;;;1.10;;
64560;SDS011;50960;46.838;16.838;2023-11-18T07:04:27;1.50;;;1.20;;
64560;SDS011;50960;46.838;16.838;2023-11-18T07:06:54;0.93;;;0.93;;
64560;SDS011;50960;46.838;16.838;2023-11-18T07:09:20;1.00;;;1.00;;
64560;SDS011;50960;46.838;16.838;2023-11-18T07:11:47;1.60;;;1.50;;
64560;SDS011;50960;46.838;16.838;2023-11-18T07:14:13;1.70;;;1.60;;
64560;SDS011;50960;46.838;16.838;2023-11-18T07:16:41;3.55;;;3.00;;
64560;SDS011;50960;46.838;16.838;2023-11-18T07:19:07;2.38;;;2.17;;
64560;SDS011;50960;46.838;16.838;2023-11-18T07:21:35;1.10;;;1.10;;
64560;SDS011;50960;46.838;16.838;2023-11-18T07:24:03;1.20;;;1.20;;
64560;SDS011;50960;46.838;16.838;2023-11-18T07:26:29;1.67;;;1.58;;
64560;SDS011;50960;46.838;16.838;2023-11-18T07:28:55;1.20;;;1.20;;
64560;SDS011;50960;46.838;16.838;2023-11-18T07:31:22;2.65;;;1.20;;
64560;SDS011;50960;46.838;16.838;2023-11-18T07:33:48;1.00;;;1.00;;
64560;SDS011;50960;46.838;16.838;2023-11-18T07:36:15;1.20;;;1.10;;
64560;SDS011;50960;46.838;16.838;2023-11-18T07:38:49;1.35;;;1.30;;
64560;SDS011;50960;46.838;16.838;2023-11-18T07:41:18;1.17;;;1.13;;
64560;SDS011;50960;46.838;16.838;2023-11-18T07:43:53;0.80;;;0.80;;
64560;SDS011;50960;46.838;16.838;2023-11-18T07:46:27;1.35;;;1.27;;
64560;SDS011;50960;46.838;16.838;2023-11-18T07:48:56;1.20;;;1.20;;
64560;SDS011;50960;46.838;16.838;2023-11-18T07:51:24;1.38;;;1.30;;
64560;SDS011;50960;46.838;16.838;2023-11-18T07:53:50;2.13;;;1.20;;
64560;SDS011;50960;46.838;16.838;2023-11-18T07:56:18;1.98;;;1.20;;
64560;SDS011;50960;46.838;16.838;2023-11-18T07:58:44;1.20;;;1.20;;
64560;SDS011;50960;46.838;16.838;2023-11-18T08:01:12;1.00;;;1.00;;
64560;SDS011;50960;46.838;16.838;2023-11-18T08:03:38;1.00;;;1.00;;
64560;SDS011;50960;46.838;16.838;2023-11-18T08:06:06;1.00;;;1.00;;
64560;SDS011;50960;46.838;16.838;2023-11-18T08:08:37;1.05;;;1.05;;
64560;SDS011;50960;46.838;16.838;2023-11-18T08:11:04;1.10;;;1.10;;
64560;SDS011;50960;46.838;16.838;2023-11-18T08:13:31;1.27;;;1.10;;
64560;SDS011;50960;46.838;16.838;2023-11-18T08:15:58;1.25;;;1.15;;
64560;SDS011;50960;46.838;16.838;2023-11-18T08:18:24;1.30;;;1.20;;
64560;SDS011;50960;46.838;16.838;2023-11-18T08:20:53;2.45;;;1.20;;
64560;SDS011;50960;46.838;16.838;2023-11-18T08:23:19;1.10;;;1.10;;
64560;SDS011;50960;46.838;16.838;2023-11-18T08:25:45;1.52;;;1.42;;
64560;SDS011;50960;46.838;16.838;2023-11-18T08:28:12;1.00;;;1.00;;
64560;SDS011;50960;46.838;16.838;2023-11-18T08:30:39;1.42;;;1.30;;
64560;SDS011;50960;46.838;16.838;2023-11-18T08:33:05;2.75;;;1.27;;
64560;SDS011;50960;46.838;16.838;2023-11-18T08:35:35;1.30;;;1.30;;
64560;SDS011;50960;46.838;16.838;2023-11-18T08:38:01;1.40;;;1.30;;
64560;SDS011;50960;46.838;16.838;2023-11-18T08:40:30;1.30;;;1.20;;
64560;SDS011;50960;46.838;16.838;2023-11-18T08:42:56;1.27;;;1.20;;
64560;SDS011;50960;46.838;16.838;2023-11-18T08:45:27;1.20;;;1.20;;
64560;SDS011;50960;46.838;16.838;2023-11-18T08:47:59;1.40;;;1.30;;
64560;SDS011;50960;46.838;16.838;2023-11-18T08:50:36;1.52;;;1.42;;
64560;SDS011;50960;46.838;16.838;2023-11-18T08:53:05;1.50;;;1.40;;
64560;SDS011;50960;46.838;16.838;2023-11-18T08:55:35;1.67;;;1.50;;
64560;SDS011;50960;46.838;16.838;2023-11-18T08:58:16;1.10;;;1.10;;
64560;SDS011;50960;46.838;16.838;2023-11-18T09:00:48;1.30;;;1.30;;
64560;SDS011;50960;46.838;16.838;2023-11-18T09:03:23;1.23;;;1.23;;
64560;SDS011;50960;46.838;16.838;2023-11-18T09:05:50;1.30;;;1.30;;
64560;SDS011;50960;46.838;16.838;2023-11-18T09:08:27;1.30;;;1.30;;
64560;SDS011;50960;46.838;16.838;2023-11-18T09:11:01;1.20;;;1.20;;
64560;SDS011;50960;46.838;16.838;2023-11-18T09:13:30;2.30;;;1.85;;
64560;SDS011;50960;46.838;16.838;2023-11-18T09:15:57;1.67;;;1.33;;
64560;SDS011;50960;46.838;16.838;2023-11-18T09:18:28;0.93;;;0.93;;
64560;SDS011;50960;46.838;16.838;2023-11-18T09:21:00;1.33;;;1.33;;
64560;SDS011;50960;46.838;16.838;2023-11-18T09:23:30;1.63;;;1.52;;
64560;SDS011;50960;46.838;16.838;2023-11-18T09:26:07;2.05;;;1.95;;
64560;SDS011;50960;46.838;16.838;2023-11-18T09:28:36;1.48;;;1.30;;
64560;SDS011;50960;46.838;16.838;2023-11-18T09:31:03;1.23;;;1.13;;
64560;SDS011;50960;46.838;16.838;2023-11-18T09:33:31;1.77;;;1.67;;
64560;SDS011;50960;46.838;16.838;2023-11-18T09:36:02;1.40;;;1.40;;
64560;SDS011;50960;46.838;16.838;2023-11-18T09:38:33;1.48;;;1.30;;
64560;SDS011;50960;46.838;16.838;2023-11-18T09:41:07;1.60;;;1.50;;
64560;SDS011;50960;46.838;16.838;2023-11-18T09:43:42;1.53;;;1.37;;
64560;SDS011;50960;46.838;16.838;2023-11-18T09:48:43;1.10;;;1.10;;
64560;SDS011;50960;46.838;16.838;2023-11-18T09:51:56;1.05;;;1.05;;
64560;SDS011;50960;46.838;16.838;2023-11-18T09:54:50;1.70;;;1.60;;
64560;SDS011;50960;46.838;16.838;2023-11-18T09:57:00;1.50;;;1.30;;
64560;SDS011;50960;46.838;16.838;2023-11-18T09:59:52;1.52;;;1.42;;
64560;SDS011;50960;46.838;16.838;2023-11-18T10:02:20;1.50;;;1.40;;
64560;SDS011;50960;46.838;16.838;2023-11-18T10:04:49;1.67;;;1.40;;
64560;SDS011;50960;46.838;16.838;2023-11-18T10:07:25;1.10;;;1.10;;
64560;SDS011;50960;46.838;16.838;2023-11-18T10:09:58;1.77;;;1.67;;
64560;SDS011;50960;46.838;16.838;2023-11-18T10:12:24;1.38;;;1.30;;
64560;SDS011;50960;46.838;16.838;2023-11-18T10:14:52;1.15;;;1.10;;
64560;SDS011;50960;46.838;16.838;2023-11-18T10:17:18;1.70;;;1.60;;
64560;SDS011;50960;46.838;16.838;2023-11-18T10:19:51;2.55;;;1.33;;
64560;SDS011;50960;46.838;16.838;2023-11-18T10:22:22;1.20;;;1.20;;
64560;SDS011;50960;46.838;16.838;2023-11-18T10:24:49;1.60;;;1.50;;
64560;SDS011;50960;46.838;16.838;2023-11-18T10:27:21;1.10;;;1.10;;
64560;SDS011;50960;46.838;16.838;2023-11-18T10:29:54;0.93;;;0.93;;
64560;SDS011;50960;46.838;16.838;2023-11-18T10:32:28;1.40;;;1.30;;
64560;SDS011;50960;46.838;16.838;2023-11-18T10:34:55;1.17;;;1.10;;
64560;SDS011;50960;46.838;16.838;2023-11-18T10:37:23;1.27;;;1.20;;
64560;SDS011;50960;46.838;16.838;2023-11-18T10:39:56;1.42;;;1.33;;
64560;SDS011;50960;46.838;16.838;2023-11-18T10:42:26;1.48;;;1.38;;
64560;SDS011;50960;46.838;16.838;2023-11-18T10:44:59;1.20;;;1.15;;
64560;SDS011;50960;46.838;16.838;2023-11-18T10:47:32;0.82;;;0.82;;
64560;SDS011;50960;46.838;16.838;2023-11-18T10:50:01;1.52;;;1.42;;
64560;SDS011;50960;46.838;16.838;2023-11-18T10:52:27;0.93;;;0.93;;
64560;SDS011;50960;46.838;16.838;2023-11-18T10:55:00;1.50;;;1.40;;
64560;SDS011;50960;46.838;16.838;2023-11-18T10:57:36;1.30;;;1.20;;
64560;SDS011;50960;46.838;16.838;2023-11-18T11:00:05;1.45;;;1.40;;
64560;SDS011;50960;46.838;16.838;2023-11-18T11:02:44;1.00;;;1.00;;
64560;SDS011;50960;46.838;16.838;2023-11-18T11:05:18;1.00;;;1.00;;
64560;SDS011;50960;46.838;16.838;2023-11-18T11:08:03;0.98;;;0.98;;
64560;SDS011;50960;46.838;16.838;2023-11-18T11:10:31;0.80;;;0.80;;
64560;SDS011;50960;46.838;16.838;2023-11-18T11:12:59;1.20;;;1.20;;
64560;SDS011;50960;46.838;16.838;2023-11-18T11:15:31;1.50;;;1.40;;
64560;SDS011;50960;46.838;16.838;2023-11-18T11:18:00;1.70;;;1.60;;
64560;SDS011;50960;46.838;16.838;2023-11-18T11:20:47;1.02;;;1.00;;
64560;SDS011;50960;46.838;16.838;2023-11-18T11:28:54;1.60;;;1.50;;
64560;SDS011;50960;46.838;16.838;2023-11-18T11:31:35;1.40;;;1.40;;
64560;SDS011;50960;46.838;16.838;2023-11-18T11:36:49;1.80;;;1.70;;
64560;SDS011;50960;46.838;16.838;2023-11-18T11:39:18;6.63;;;4.72;;
64560;SDS011;50960;46.838;16.838;2023-11-18T11:41:56;13.15;;;6.38;;
64560;SDS011;50960;46.838;16.838;2023-11-18T11:44:24;18.90;;;9.30;;
64560;SDS011;50960;46.838;16.838;2023-11-18T11:46:57;39.78;;;16.83;;
64560;SDS011;50960;46.838;16.838;2023-11-18T11:49:26;47.35;;;27.10;;
64560;SDS011;50960;46.838;16.838;2023-11-18T11:54:42;28.07;;;16.57;;
64560;SDS011;50960;46.838;16.838;2023-11-18T11:57:15;24.10;;;13.65;;
64560;SDS011;50960;46.838;16.838;2023-11-18T12:02:13;16.73;;;9.77;;
64560;SDS011;50960;46.838;16.838;2023-11-18T12:04:45;14.70;;;10.15;;
64560;SDS011;50960;46.838;16.838;2023-11-18T12:07:19;9.25;;;6.18;;
64560;SDS011;50960;46.838;16.838;2023-11-18T12:09:54;8.85;;;5.88;;
64560;SDS011;50960;46.838;16.838;2023-11-18T12:12:23;6.47;;;4.90;;
64560;SDS011;50960;46.838;16.838;2023-11-18T12:20:40;5.72;;;4.22;;
64560;SDS011;50960;46.838;16.838;2023-11-18T12:23:16;7.93;;;5.85;;
64560;SDS011;50960;46.838;16.838;2023-11-18T12:25:48;6.50;;;4.55;;
64560;SDS011;50960;46.838;16.838;2023-11-18T12:28:20;5.78;;;4.57;;
64560;SDS011;50960;46.838;16.838;2023-11-18T12:30:52;3.28;;;2.85;;
64560;SDS011;50960;46.838;16.838;2023-11-18T12:33:25;3.00;;;2.80;;
64560;SDS011;50960;46.838;16.838;2023-11-18T12:39:18;3.45;;;3.00;;
64560;SDS011;50960;46.838;16.838;2023-11-18T12:42:06;3.30;;;2.95;;
64560;SDS011;50960;46.838;16.838;2023-11-18T12:44:40;2.40;;;2.20;;
64560;SDS011;50960;46.838;16.838;2023-11-18T12:47:13;3.97;;;2.90;;
64560;SDS011;50960;46.838;16.838;2023-11-18T12:49:44;3.17;;;2.53;;
64560;SDS011;50960;46.838;16.838;2023-11-18T12:52:15;2.42;;;2.30;;
64560;SDS011;50960;46.838;16.838;2023-11-18T12:54:44;3.05;;;2.50;;
64560;SDS011;50960;46.838;16.838;2023-11-18T12:57:17;2.08;;;1.98;;
64560;SDS011;50960;46.838;16.838;2023-11-18T12:59:48;2.38;;;2.20;;
64560;SDS011;50960;46.838;16.838;2023-11-18T13:02:15;2.40;;;2.20;;
64560;SDS011;50960;46.838;16.838;2023-11-18T13:04:45;3.00;;;2.17;;
64560;SDS011;50960;46.838;16.838;2023-11-18T13:07:13;2.97;;;1.95;;
64560;SDS011;50960;46.838;16.838;2023-11-18T13:09:40;2.17;;;1.95;;
64560;SDS011;50960;46.838;16.838;2023-11-18T13:12:09;3.40;;;2.00;;
64560;SDS011;50960;46.838;16.838;2023-11-18T13:14:40;2.08;;;1.88;;
64560;SDS011;50960;46.838;16.838;2023-11-18T13:17:11;1.98;;;1.88;;
64560;SDS011;50960;46.838;16.838;2023-11-18T13:19:41;2.58;;;1.90;;
64560;SDS011;50960;46.838;16.838;2023-11-18T13:22:09;2.97;;;2.40;;
64560;SDS011;50960;46.838;16.838;2023-11-18T13:24:37;2.42;;;2.17;;
64560;SDS011;50960;46.838;16.838;2023-11-18T13:27:12;5.65;;;2.75;;
64560;SDS011;50960;46.838;16.838;2023-11-18T13:29:45;4.55;;;2.90;;
64560;SDS011;50960;46.838;16.838;2023-11-18T13:34:40;3.97;;;2.50;;
64560;SDS011;50960;46.838;16.838;2023-11-18T13:37:07;5.10;;;3.08;;
64560;SDS011;50960;46.838;16.838;2023-11-18T13:39:35;2.47;;;2.30;;
64560;SDS011;50960;46.838;16.838;2023-11-18T13:42:19;2.35;;;2.15;;
64560;SDS011;50960;46.838;16.838;2023-11-18T13:44:47;2.58;;;2.30;;
64560;SDS011;50960;46.838;16.838;2023-11-18T13:47:16;2.47;;;2.28;;
64560;SDS011;50960;46.838;16.838;2023-11-18T13:49:43;2.30;;;2.10;;
64560;SDS011;50960;46.838;16.838;2023-11-18T13:52:12;2.10;;;2.00;;
64560;SDS011;50960;46.838;16.838;2023-11-18T13:54:42;2.55;;;2.38;;
64560;SDS011;50960;46.838;16.838;2023-11-18T13:57:11;2.60;;;2.45;;
64560;SDS011;50960;46.838;16.838;2023-11-18T13:59:38;3.45;;;2.80;;
64560;SDS011;50960;46.838;16.838;2023-11-18T14:02:05;2.97;;;2.78;;
64560;SDS011;50960;46.838;16.838;2023-11-18T14:04:33;3.50;;;3.30;;
64560;SDS011;50960;46.838;16.838;2023-11-18T14:07:00;4.30;;;3.53;;
64560;SDS011;50960;46.838;16.838;2023-11-18T14:09:37;3.15;;;2.95;;
64560;SDS011;50960;46.838;16.838;2023-11-18T14:12:07;4.72;;;3.97;;
64560;SDS011;50960;46.838;16.838;2023-11-18T14:14:34;4.45;;;3.70;;
64560;SDS011;50960;46.838;16.838;2023-11-18T14:17:01;3.70;;;3.40;;
64560;SDS011;50960;46.838;16.838;2023-11-18T14:19:30;3.00;;;2.80;;
64560;SDS011;50960;46.838;16.838;2023-11-18T14:21:56;2.80;;;2.60;;
64560;SDS011;50960;46.838;16.838;2023-11-18T14:24:23;2.90;;;2.70;;
64560;SDS011;50960;46.838;16.838;2023-11-18T14:26:56;2.50;;;2.30;;
64560;SDS011;50960;46.838;16.838;2023-11-18T14:29:22;2.88;;;2.65;;
64560;SDS011;50960;46.838;16.838;2023-11-18T14:31:49;2.63;;;2.42;;
64560;SDS011;50960;46.838;16.838;2023-11-18T14:34:15;2.80;;;2.40;;
64560;SDS011;50960;46.838;16.838;2023-11-18T14:36:42;3.22;;;3.03;;
64560;SDS011;50960;46.838;16.838;2023-11-18T14:39:11;6.40;;;2.70;;
64560;SDS011;50960;46.838;16.838;2023-11-18T14:41:40;2.92;;;2.72;;
64560;SDS011;50960;46.838;16.838;2023-11-18T14:44:09;3.00;;;2.80;;
64560;SDS011;50960;46.838;16.838;2023-11-18T14:46:35;3.03;;;2.83;;
64560;SDS011;50960;46.838;16.838;2023-11-18T14:49:06;3.20;;;2.90;;
64560;SDS011;50960;46.838;16.838;2023-11-18T14:51:33;3.03;;;2.67;;
64560;SDS011;50960;46.838;16.838;2023-11-18T14:54:01;2.40;;;2.30;;
64560;SDS011;50960;46.838;16.838;2023-11-18T14:56:27;2.67;;;2.35;;
64560;SDS011;50960;46.838;16.838;2023-11-18T14:58:54;1.90;;;1.80;;
64560;SDS011;50960;46.838;16.838;2023-11-18T15:01:21;2.20;;;1.88;;
64560;SDS011;50960;46.838;16.838;2023-11-18T15:03:47;1.80;;;1.70;;
64560;SDS011;50960;46.838;16.838;2023-11-18T15:06:14;2.60;;;2.40;;
64560;SDS011;50960;46.838;16.838;2023-11-18T15:08:41;1.90;;;1.80;;
64560;SDS011;50960;46.838;16.838;2023-11-18T15:11:08;2.00;;;1.90;;
64560;SDS011;50960;46.838;16.838;2023-11-18T15:13:35;1.80;;;1.70;;
64560;SDS011;50960;46.838;16.838;2023-11-18T15:16:02;1.88;;;1.77;;
64560;SDS011;50960;46.838;16.838;2023-11-18T15:18:29;1.98;;;1.65;;
64560;SDS011;50960;46.838;16.838;2023-11-18T15:20:56;2.78;;;2.00;;